sensor_id;sensor_type;location;lat;lon;timestamp;P1;durP1;ratioP1;P2;durP2;ratioP2
59338;SDS011;45117;50.960;5.500;2022-07-19T00:02:02;4.80;;;3.00;;
59338;SDS011;45117;50.960;5.500;2022-07-19T00:04:30;4.15;;;2.60;;
59338;SDS011;45117;50.960;5.500;2022-07-19T00:06:56;7.72;;;3.10;;
59338;SDS011;45117;50.960;5.500;2022-07-19T00:09:23;3.83;;;2.38;;
59338;SDS011;45117;50.960;5.500;2022-07-19T00:11:50;4.63;;;2.38;;
59338;SDS011;45117;50.960;5.500;2022-07-19T00:14:17;4.90;;;2.47;;
59338;SDS011;45117;50.960;5.500;2022-07-19T00:16:44;3.45;;;2.38;;
59338;SDS011;45117;50.960;5.500;2022-07-19T00:19:12;4.97;;;2.30;;
59338;SDS011;45117;50.960;5.500;2022-07-19T00:21:39;3.50;;;2.33;;
59338;SDS011;45117;50.960;5.500;2022-07-19T00:24:05;4.13;;;2.20;;
59338;SDS011;45117;50.960;5.500;2022-07-19T00:26:32;3.55;;;2.78;;
59338;SDS011;45117;50.960;5.500;2022-07-19T00:28:59;10.20;;;2.70;;
59338;SDS011;45117;50.960;5.500;2022-07-19T00:31:27;3.42;;;2.50;;
59338;SDS011;45117;50.960;5.500;2022-07-19T00:33:53;4.80;;;2.35;;
59338;SDS011;45117;50.960;5.500;2022-07-19T00:36:21;4.88;;;2.58;;
59338;SDS011;45117;50.960;5.500;2022-07-19T00:38:48;3.00;;;2.47;;
59338;SDS011;45117;50.960;5.500;2022-07-19T00:41:14;4.72;;;2.65;;
59338;SDS011;45117;50.960;5.500;2022-07-19T00:43:41;3.67;;;2.47;;
59338;SDS011;45117;50.960;5.500;2022-07-19T00:46:11;3.72;;;2.65;;
59338;SDS011;45117;50.960;5.500;2022-07-19T00:48:38;5.22;;;2.67;;
59338;SDS011;45117;50.960;5.500;2022-07-19T00:51:06;6.18;;;2.50;;
59338;SDS011;45117;50.960;5.500;2022-07-19T00:53:34;3.53;;;2.60;;
59338;SDS011;45117;50.960;5.500;2022-07-19T00:56:02;4.55;;;2.40;;
59338;SDS011;45117;50.960;5.500;2022-07-19T00:58:30;3.22;;;2.40;;
59338;SDS011;45117;50.960;5.500;2022-07-19T01:00:58;5.15;;;2.45;;
59338;SDS011;45117;50.960;5.500;2022-07-19T01:03:25;7.22;;;2.78;;
59338;SDS011;45117;50.960;5.500;2022-07-19T01:05:52;5.78;;;2.55;;
59338;SDS011;45117;50.960;5.500;2022-07-19T01:08:19;3.25;;;2.58;;
59338;SDS011;45117;50.960;5.500;2022-07-19T01:10:47;4.15;;;2.45;;
59338;SDS011;45117;50.960;5.500;2022-07-19T01:13:14;4.15;;;2.70;;
59338;SDS011;45117;50.960;5.500;2022-07-19T01:15:41;3.88;;;2.13;;
59338;SDS011;45117;50.960;5.500;2022-07-19T01:18:09;5.40;;;2.47;;
59338;SDS011;45117;50.960;5.500;2022-07-19T01:20:35;4.57;;;2.58;;
59338;SDS011;45117;50.960;5.500;2022-07-19T01:23:03;7.40;;;2.80;;
59338;SDS011;45117;50.960;5.500;2022-07-19T01:25:31;3.13;;;2.40;;
59338;SDS011;45117;50.960;5.500;2022-07-19T01:27:58;5.43;;;2.67;;
59338;SDS011;45117;50.960;5.500;2022-07-19T01:30:25;4.07;;;2.70;;
59338;SDS011;45117;50.960;5.500;2022-07-19T01:32:54;4.28;;;2.50;;
59338;SDS011;45117;50.960;5.500;2022-07-19T01:35:21;4.15;;;2.53;;
59338;SDS011;45117;50.960;5.500;2022-07-19T01:37:49;4.05;;;2.55;;
59338;SDS011;45117;50.960;5.500;2022-07-19T01:40:17;4.55;;;2.55;;
59338;SDS011;45117;50.960;5.500;2022-07-19T01:42:45;5.32;;;2.80;;
59338;SDS011;45117;50.960;5.500;2022-07-19T01:45:13;3.53;;;2.42;;
59338;SDS011;45117;50.960;5.500;2022-07-19T01:47:40;2.95;;;2.50;;
59338;SDS011;45117;50.960;5.500;2022-07-19T01:50:08;4.47;;;2.78;;
59338;SDS011;45117;50.960;5.500;2022-07-19T01:52:35;4.50;;;2.72;;
59338;SDS011;45117;50.960;5.500;2022-07-19T01:55:02;4.07;;;2.70;;
59338;SDS011;45117;50.960;5.500;2022-07-19T01:57:31;5.18;;;2.50;;
59338;SDS011;45117;50.960;5.500;2022-07-19T01:59:58;4.07;;;2.63;;
59338;SDS011;45117;50.960;5.500;2022-07-19T02:02:24;3.70;;;2.20;;
59338;SDS011;45117;50.960;5.500;2022-07-19T02:04:51;4.13;;;2.40;;
59338;SDS011;45117;50.960;5.500;2022-07-19T02:07:17;3.35;;;2.50;;
59338;SDS011;45117;50.960;5.500;2022-07-19T02:09:44;3.42;;;2.50;;
59338;SDS011;45117;50.960;5.500;2022-07-19T02:12:11;4.28;;;2.47;;
59338;SDS011;45117;50.960;5.500;2022-07-19T02:14:39;3.35;;;2.30;;
59338;SDS011;45117;50.960;5.500;2022-07-19T02:17:05;3.97;;;2.50;;
59338;SDS011;45117;50.960;5.500;2022-07-19T02:19:32;4.88;;;2.50;;
59338;SDS011;45117;50.960;5.500;2022-07-19T02:21:58;4.18;;;2.50;;
59338;SDS011;45117;50.960;5.500;2022-07-19T02:24:25;3.85;;;2.47;;
59338;SDS011;45117;50.960;5.500;2022-07-19T02:26:51;5.70;;;2.97;;
59338;SDS011;45117;50.960;5.500;2022-07-19T02:29:18;4.32;;;2.47;;
59338;SDS011;45117;50.960;5.500;2022-07-19T02:31:46;4.18;;;2.60;;
59338;SDS011;45117;50.960;5.500;2022-07-19T02:34:12;4.82;;;2.58;;
59338;SDS011;45117;50.960;5.500;2022-07-19T02:36:39;3.20;;;2.50;;
59338;SDS011;45117;50.960;5.500;2022-07-19T02:39:05;4.80;;;2.60;;
59338;SDS011;45117;50.960;5.500;2022-07-19T02:41:32;5.18;;;3.42;;
59338;SDS011;45117;50.960;5.500;2022-07-19T02:43:58;3.72;;;2.63;;
59338;SDS011;45117;50.960;5.500;2022-07-19T02:46:25;4.85;;;2.63;;
59338;SDS011;45117;50.960;5.500;2022-07-19T02:48:53;5.18;;;2.60;;
59338;SDS011;45117;50.960;5.500;2022-07-19T02:51:19;2.60;;;2.38;;
59338;SDS011;45117;50.960;5.500;2022-07-19T02:53:46;6.72;;;2.85;;
59338;SDS011;45117;50.960;5.500;2022-07-19T02:56:12;4.88;;;2.47;;
59338;SDS011;45117;50.960;5.500;2022-07-19T02:58:39;3.38;;;2.60;;
59338;SDS011;45117;50.960;5.500;2022-07-19T03:01:06;6.63;;;2.72;;
59338;SDS011;45117;50.960;5.500;2022-07-19T03:03:32;3.17;;;2.47;;
59338;SDS011;45117;50.960;5.500;2022-07-19T03:06:13;4.20;;;2.50;;
59338;SDS011;45117;50.960;5.500;2022-07-19T03:08:41;4.55;;;2.50;;
59338;SDS011;45117;50.960;5.500;2022-07-19T03:11:08;5.43;;;2.30;;
59338;SDS011;45117;50.960;5.500;2022-07-19T03:13:34;5.95;;;2.70;;
59338;SDS011;45117;50.960;5.500;2022-07-19T03:16:01;3.72;;;2.60;;
59338;SDS011;45117;50.960;5.500;2022-07-19T03:18:28;6.32;;;2.75;;
59338;SDS011;45117;50.960;5.500;2022-07-19T03:20:55;2.88;;;2.58;;
59338;SDS011;45117;50.960;5.500;2022-07-19T03:23:24;4.43;;;2.70;;
59338;SDS011;45117;50.960;5.500;2022-07-19T03:25:51;4.60;;;2.67;;
59338;SDS011;45117;50.960;5.500;2022-07-19T03:28:18;5.47;;;2.60;;
59338;SDS011;45117;50.960;5.500;2022-07-19T03:30:45;7.43;;;2.92;;
59338;SDS011;45117;50.960;5.500;2022-07-19T03:33:12;5.25;;;2.50;;
59338;SDS011;45117;50.960;5.500;2022-07-19T03:35:40;3.90;;;2.72;;
59338;SDS011;45117;50.960;5.500;2022-07-19T03:38:07;3.55;;;2.60;;
59338;SDS011;45117;50.960;5.500;2022-07-19T03:40:35;6.13;;;3.00;;
59338;SDS011;45117;50.960;5.500;2022-07-19T03:43:02;6.90;;;2.92;;
59338;SDS011;45117;50.960;5.500;2022-07-19T03:45:29;3.85;;;2.67;;
59338;SDS011;45117;50.960;5.500;2022-07-19T03:47:55;5.25;;;2.95;;
59338;SDS011;45117;50.960;5.500;2022-07-19T03:50:22;8.10;;;2.70;;
59338;SDS011;45117;50.960;5.500;2022-07-19T03:52:48;5.82;;;2.80;;
59338;SDS011;45117;50.960;5.500;2022-07-19T03:55:15;3.60;;;2.42;;
59338;SDS011;45117;50.960;5.500;2022-07-19T03:57:43;4.28;;;2.50;;
59338;SDS011;45117;50.960;5.500;2022-07-19T04:00:09;5.53;;;2.63;;
59338;SDS011;45117;50.960;5.500;2022-07-19T04:02:36;5.97;;;3.10;;
59338;SDS011;45117;50.960;5.500;2022-07-19T04:05:03;5.90;;;3.15;;
59338;SDS011;45117;50.960;5.500;2022-07-19T04:07:30;5.50;;;2.78;;
59338;SDS011;45117;50.960;5.500;2022-07-19T04:09:56;6.00;;;2.72;;
59338;SDS011;45117;50.960;5.500;2022-07-19T04:12:23;6.43;;;2.75;;
59338;SDS011;45117;50.960;5.500;2022-07-19T04:14:51;5.35;;;2.90;;
59338;SDS011;45117;50.960;5.500;2022-07-19T04:17:17;4.68;;;2.47;;
59338;SDS011;45117;50.960;5.500;2022-07-19T04:19:45;4.00;;;2.80;;
59338;SDS011;45117;50.960;5.500;2022-07-19T04:22:11;3.95;;;2.80;;
59338;SDS011;45117;50.960;5.500;2022-07-19T04:24:38;4.63;;;2.80;;
59338;SDS011;45117;50.960;5.500;2022-07-19T04:27:04;6.90;;;2.88;;
59338;SDS011;45117;50.960;5.500;2022-07-19T04:29:31;7.32;;;3.20;;
59338;SDS011;45117;50.960;5.500;2022-07-19T04:31:59;5.85;;;3.10;;
59338;SDS011;45117;50.960;5.500;2022-07-19T04:34:25;4.70;;;3.10;;
59338;SDS011;45117;50.960;5.500;2022-07-19T04:36:52;5.13;;;2.97;;
59338;SDS011;45117;50.960;5.500;2022-07-19T04:39:18;5.95;;;2.85;;
59338;SDS011;45117;50.960;5.500;2022-07-19T04:41:45;5.80;;;2.78;;
59338;SDS011;45117;50.960;5.500;2022-07-19T04:44:12;4.75;;;3.10;;
59338;SDS011;45117;50.960;5.500;2022-07-19T04:46:38;3.20;;;2.72;;
59338;SDS011;45117;50.960;5.500;2022-07-19T04:49:06;5.28;;;2.83;;
59338;SDS011;45117;50.960;5.500;2022-07-19T04:51:33;4.75;;;3.00;;
59338;SDS011;45117;50.960;5.500;2022-07-19T04:53:59;5.28;;;2.85;;
59338;SDS011;45117;50.960;5.500;2022-07-19T04:56:26;3.35;;;2.72;;
59338;SDS011;45117;50.960;5.500;2022-07-19T04:58:52;5.95;;;2.65;;
59338;SDS011;45117;50.960;5.500;2022-07-19T05:01:19;6.38;;;2.83;;
59338;SDS011;45117;50.960;5.500;2022-07-19T05:03:45;5.65;;;2.90;;
59338;SDS011;45117;50.960;5.500;2022-07-19T05:06:13;4.53;;;2.60;;
59338;SDS011;45117;50.960;5.500;2022-07-19T05:08:40;4.63;;;3.00;;
59338;SDS011;45117;50.960;5.500;2022-07-19T05:11:07;9.00;;;2.70;;
59338;SDS011;45117;50.960;5.500;2022-07-19T05:13:33;5.35;;;2.95;;
59338;SDS011;45117;50.960;5.500;2022-07-19T05:16:00;7.63;;;3.20;;
59338;SDS011;45117;50.960;5.500;2022-07-19T05:18:29;5.13;;;2.83;;
59338;SDS011;45117;50.960;5.500;2022-07-19T05:20:55;6.15;;;2.88;;
59338;SDS011;45117;50.960;5.500;2022-07-19T05:23:23;5.22;;;2.90;;
59338;SDS011;45117;50.960;5.500;2022-07-19T05:25:49;5.28;;;2.92;;
59338;SDS011;45117;50.960;5.500;2022-07-19T05:28:16;5.53;;;2.55;;
59338;SDS011;45117;50.960;5.500;2022-07-19T05:30:44;6.80;;;3.05;;
59338;SDS011;45117;50.960;5.500;2022-07-19T05:33:10;5.18;;;2.63;;
59338;SDS011;45117;50.960;5.500;2022-07-19T05:35:37;6.80;;;2.97;;
59338;SDS011;45117;50.960;5.500;2022-07-19T05:38:04;5.85;;;2.90;;
59338;SDS011;45117;50.960;5.500;2022-07-19T05:40:32;5.05;;;2.60;;
59338;SDS011;45117;50.960;5.500;2022-07-19T05:42:58;7.90;;;2.78;;
59338;SDS011;45117;50.960;5.500;2022-07-19T05:45:25;3.83;;;2.20;;
59338;SDS011;45117;50.960;5.500;2022-07-19T05:47:52;7.00;;;2.50;;
59338;SDS011;45117;50.960;5.500;2022-07-19T05:50:18;4.13;;;2.33;;
59338;SDS011;45117;50.960;5.500;2022-07-19T05:52:45;7.25;;;2.38;;
59338;SDS011;45117;50.960;5.500;2022-07-19T05:55:11;3.95;;;2.10;;
59338;SDS011;45117;50.960;5.500;2022-07-19T05:57:39;3.13;;;1.90;;
59338;SDS011;45117;50.960;5.500;2022-07-19T06:00:06;3.95;;;2.03;;
59338;SDS011;45117;50.960;5.500;2022-07-19T06:02:34;2.88;;;2.00;;
59338;SDS011;45117;50.960;5.500;2022-07-19T06:05:01;8.13;;;2.60;;
59338;SDS011;45117;50.960;5.500;2022-07-19T06:07:27;4.32;;;2.17;;
59338;SDS011;45117;50.960;5.500;2022-07-19T06:09:54;5.13;;;2.17;;
59338;SDS011;45117;50.960;5.500;2022-07-19T06:12:20;5.28;;;2.35;;
59338;SDS011;45117;50.960;5.500;2022-07-19T06:14:49;4.65;;;2.17;;
59338;SDS011;45117;50.960;5.500;2022-07-19T06:17:15;4.65;;;2.15;;
59338;SDS011;45117;50.960;5.500;2022-07-19T06:19:42;3.05;;;2.10;;
59338;SDS011;45117;50.960;5.500;2022-07-19T06:22:08;6.28;;;2.35;;
59338;SDS011;45117;50.960;5.500;2022-07-19T06:24:35;4.47;;;2.30;;
59338;SDS011;45117;50.960;5.500;2022-07-19T06:27:01;5.35;;;2.50;;
59338;SDS011;45117;50.960;5.500;2022-07-19T06:29:28;5.85;;;2.03;;
59338;SDS011;45117;50.960;5.500;2022-07-19T06:31:56;5.03;;;2.15;;
59338;SDS011;45117;50.960;5.500;2022-07-19T06:34:23;3.97;;;2.40;;
59338;SDS011;45117;50.960;5.500;2022-07-19T06:36:49;4.70;;;2.00;;
59338;SDS011;45117;50.960;5.500;2022-07-19T06:39:16;5.05;;;1.98;;
59338;SDS011;45117;50.960;5.500;2022-07-19T06:41:42;7.78;;;2.20;;
59338;SDS011;45117;50.960;5.500;2022-07-19T06:44:09;6.38;;;2.15;;
59338;SDS011;45117;50.960;5.500;2022-07-19T06:46:35;7.35;;;2.00;;
59338;SDS011;45117;50.960;5.500;2022-07-19T06:49:03;8.77;;;2.35;;
59338;SDS011;45117;50.960;5.500;2022-07-19T06:51:30;5.97;;;2.20;;
59338;SDS011;45117;50.960;5.500;2022-07-19T06:53:56;8.45;;;2.90;;
59338;SDS011;45117;50.960;5.500;2022-07-19T06:56:23;6.63;;;2.80;;
59338;SDS011;45117;50.960;5.500;2022-07-19T06:58:49;7.45;;;3.00;;
59338;SDS011;45117;50.960;5.500;2022-07-19T07:01:16;10.48;;;3.10;;
59338;SDS011;45117;50.960;5.500;2022-07-19T07:03:44;11.20;;;3.50;;
59338;SDS011;45117;50.960;5.500;2022-07-19T07:06:12;12.18;;;3.90;;
59338;SDS011;45117;50.960;5.500;2022-07-19T07:08:39;9.38;;;3.30;;
59338;SDS011;45117;50.960;5.500;2022-07-19T07:11:05;8.90;;;3.10;;
59338;SDS011;45117;50.960;5.500;2022-07-19T07:13:32;10.25;;;3.20;;
59338;SDS011;45117;50.960;5.500;2022-07-19T07:15:58;7.47;;;3.60;;
59338;SDS011;45117;50.960;5.500;2022-07-19T07:18:25;13.10;;;3.38;;
59338;SDS011;45117;50.960;5.500;2022-07-19T07:20:51;8.65;;;3.38;;
59338;SDS011;45117;50.960;5.500;2022-07-19T07:23:19;10.90;;;3.63;;
59338;SDS011;45117;50.960;5.500;2022-07-19T07:25:47;9.32;;;3.17;;
59338;SDS011;45117;50.960;5.500;2022-07-19T07:28:14;7.15;;;3.10;;
59338;SDS011;45117;50.960;5.500;2022-07-19T07:30:40;6.90;;;2.72;;
59338;SDS011;45117;50.960;5.500;2022-07-19T07:33:07;8.70;;;2.70;;
59338;SDS011;45117;50.960;5.500;2022-07-19T07:35:33;6.93;;;2.60;;
59338;SDS011;45117;50.960;5.500;2022-07-19T07:38:00;10.15;;;3.28;;
59338;SDS011;45117;50.960;5.500;2022-07-19T07:40:28;9.82;;;3.40;;
59338;SDS011;45117;50.960;5.500;2022-07-19T07:42:54;7.70;;;2.58;;
59338;SDS011;45117;50.960;5.500;2022-07-19T07:45:21;7.70;;;2.88;;
59338;SDS011;45117;50.960;5.500;2022-07-19T07:47:48;7.45;;;2.88;;
59338;SDS011;45117;50.960;5.500;2022-07-19T07:50:14;7.70;;;2.30;;
59338;SDS011;45117;50.960;5.500;2022-07-19T07:52:41;8.35;;;2.40;;
59338;SDS011;45117;50.960;5.500;2022-07-19T07:55:08;8.15;;;2.60;;
59338;SDS011;45117;50.960;5.500;2022-07-19T07:57:36;5.28;;;2.42;;
59338;SDS011;45117;50.960;5.500;2022-07-19T08:00:03;4.55;;;2.13;;
59338;SDS011;45117;50.960;5.500;2022-07-19T08:02:30;4.78;;;1.90;;
59338;SDS011;45117;50.960;5.500;2022-07-19T08:04:58;4.97;;;1.90;;
59338;SDS011;45117;50.960;5.500;2022-07-19T08:07:24;3.22;;;1.73;;
59338;SDS011;45117;50.960;5.500;2022-07-19T08:09:51;3.50;;;1.60;;
59338;SDS011;45117;50.960;5.500;2022-07-19T08:12:18;4.60;;;1.98;;
59338;SDS011;45117;50.960;5.500;2022-07-19T08:14:45;3.65;;;1.77;;
59338;SDS011;45117;50.960;5.500;2022-07-19T08:17:12;2.60;;;1.55;;
59338;SDS011;45117;50.960;5.500;2022-07-19T08:19:38;4.00;;;1.67;;
59338;SDS011;45117;50.960;5.500;2022-07-19T08:22:05;5.18;;;1.60;;
59338;SDS011;45117;50.960;5.500;2022-07-19T08:24:31;3.78;;;1.60;;
59338;SDS011;45117;50.960;5.500;2022-07-19T08:26:58;5.10;;;1.52;;
59338;SDS011;45117;50.960;5.500;2022-07-19T08:29:25;2.00;;;1.50;;
59338;SDS011;45117;50.960;5.500;2022-07-19T08:31:53;4.70;;;1.60;;
59338;SDS011;45117;50.960;5.500;2022-07-19T08:34:19;5.03;;;1.48;;
59338;SDS011;45117;50.960;5.500;2022-07-19T08:36:46;6.53;;;1.88;;
59338;SDS011;45117;50.960;5.500;2022-07-19T08:39:12;3.03;;;1.60;;
59338;SDS011;45117;50.960;5.500;2022-07-19T08:41:41;4.70;;;1.77;;
59338;SDS011;45117;50.960;5.500;2022-07-19T08:44:08;2.30;;;1.55;;
59338;SDS011;45117;50.960;5.500;2022-07-19T08:46:36;4.38;;;1.50;;
59338;SDS011;45117;50.960;5.500;2022-07-19T08:49:04;4.70;;;1.70;;
59338;SDS011;45117;50.960;5.500;2022-07-19T08:51:31;4.80;;;1.40;;
59338;SDS011;45117;50.960;5.500;2022-07-19T08:53:58;3.05;;;1.50;;
59338;SDS011;45117;50.960;5.500;2022-07-19T08:56:26;4.22;;;1.58;;
59338;SDS011;45117;50.960;5.500;2022-07-19T08:59:11;6.35;;;1.60;;
59338;SDS011;45117;50.960;5.500;2022-07-19T09:01:38;3.85;;;1.67;;
59338;SDS011;45117;50.960;5.500;2022-07-19T09:04:07;2.83;;;1.67;;
59338;SDS011;45117;50.960;5.500;2022-07-19T09:06:36;6.30;;;2.20;;
59338;SDS011;45117;50.960;5.500;2022-07-19T09:09:06;2.55;;;1.83;;
59338;SDS011;45117;50.960;5.500;2022-07-19T09:11:33;4.80;;;1.60;;
59338;SDS011;45117;50.960;5.500;2022-07-19T09:14:05;6.75;;;1.77;;
59338;SDS011;45117;50.960;5.500;2022-07-19T09:16:48;4.18;;;1.63;;
59338;SDS011;45117;50.960;5.500;2022-07-19T09:19:21;4.53;;;1.67;;
59338;SDS011;45117;50.960;5.500;2022-07-19T09:21:52;3.53;;;1.33;;
59338;SDS011;45117;50.960;5.500;2022-07-19T09:24:20;2.55;;;1.65;;
59338;SDS011;45117;50.960;5.500;2022-07-19T09:26:57;6.32;;;1.60;;
59338;SDS011;45117;50.960;5.500;2022-07-19T09:29:25;6.60;;;1.70;;
59338;SDS011;45117;50.960;5.500;2022-07-19T09:32:00;4.80;;;2.03;;
59338;SDS011;45117;50.960;5.500;2022-07-19T09:34:30;3.20;;;1.90;;
59338;SDS011;45117;50.960;5.500;2022-07-19T09:37:11;5.75;;;1.90;;
59338;SDS011;45117;50.960;5.500;2022-07-19T09:39:42;3.15;;;1.60;;
59338;SDS011;45117;50.960;5.500;2022-07-19T09:42:11;4.13;;;1.60;;
59338;SDS011;45117;50.960;5.500;2022-07-19T09:44:39;3.67;;;1.65;;
59338;SDS011;45117;50.960;5.500;2022-07-19T09:47:05;2.20;;;1.33;;
59338;SDS011;45117;50.960;5.500;2022-07-19T09:49:33;4.05;;;1.45;;
59338;SDS011;45117;50.960;5.500;2022-07-19T09:52:00;2.00;;;1.48;;
59338;SDS011;45117;50.960;5.500;2022-07-19T09:54:28;3.35;;;1.63;;
59338;SDS011;45117;50.960;5.500;2022-07-19T10:00:18;3.55;;;1.50;;
59338;SDS011;45117;50.960;5.500;2022-07-19T10:02:47;4.93;;;1.40;;
59338;SDS011;45117;50.960;5.500;2022-07-19T10:05:18;6.03;;;1.80;;
59338;SDS011;45117;50.960;5.500;2022-07-19T10:07:46;2.97;;;1.33;;
59338;SDS011;45117;50.960;5.500;2022-07-19T10:10:14;3.67;;;1.40;;
59338;SDS011;45117;50.960;5.500;2022-07-19T10:12:42;4.07;;;1.50;;
59338;SDS011;45117;50.960;5.500;2022-07-19T10:15:11;3.33;;;1.60;;
59338;SDS011;45117;50.960;5.500;2022-07-19T10:17:41;4.05;;;1.73;;
59338;SDS011;45117;50.960;5.500;2022-07-19T10:20:18;3.75;;;1.50;;
59338;SDS011;45117;50.960;5.500;2022-07-19T10:22:48;3.83;;;1.58;;
59338;SDS011;45117;50.960;5.500;2022-07-19T10:25:15;5.45;;;1.60;;
59338;SDS011;45117;50.960;5.500;2022-07-19T10:27:44;4.55;;;1.58;;
59338;SDS011;45117;50.960;5.500;2022-07-19T10:30:18;5.32;;;1.60;;
59338;SDS011;45117;50.960;5.500;2022-07-19T10:32:51;4.50;;;1.67;;
59338;SDS011;45117;50.960;5.500;2022-07-19T10:35:21;4.30;;;1.63;;
59338;SDS011;45117;50.960;5.500;2022-07-19T10:37:49;4.18;;;1.77;;
59338;SDS011;45117;50.960;5.500;2022-07-19T10:40:34;5.65;;;1.63;;
59338;SDS011;45117;50.960;5.500;2022-07-19T10:43:03;2.85;;;1.60;;
59338;SDS011;45117;50.960;5.500;2022-07-19T10:45:31;4.45;;;1.88;;
59338;SDS011;45117;50.960;5.500;2022-07-19T10:48:06;6.55;;;1.85;;
59338;SDS011;45117;50.960;5.500;2022-07-19T10:50:52;5.38;;;1.92;;
59338;SDS011;45117;50.960;5.500;2022-07-19T10:56:42;3.38;;;1.52;;
59338;SDS011;45117;50.960;5.500;2022-07-19T10:59:32;3.22;;;1.45;;
59338;SDS011;45117;50.960;5.500;2022-07-19T11:02:01;3.70;;;1.45;;
59338;SDS011;45117;50.960;5.500;2022-07-19T11:04:29;2.70;;;1.30;;
59338;SDS011;45117;50.960;5.500;2022-07-19T11:07:11;3.53;;;1.33;;
59338;SDS011;45117;50.960;5.500;2022-07-19T11:09:43;3.90;;;1.70;;
59338;SDS011;45117;50.960;5.500;2022-07-19T11:15:01;5.63;;;1.50;;
59338;SDS011;45117;50.960;5.500;2022-07-19T11:17:30;2.15;;;1.33;;
59338;SDS011;45117;50.960;5.500;2022-07-19T11:19:58;6.18;;;1.60;;
59338;SDS011;45117;50.960;5.500;2022-07-19T11:22:27;2.85;;;1.58;;
59338;SDS011;45117;50.960;5.500;2022-07-19T11:24:59;4.28;;;1.33;;
59338;SDS011;45117;50.960;5.500;2022-07-19T11:27:25;4.75;;;1.30;;
59338;SDS011;45117;50.960;5.500;2022-07-19T11:29:52;3.20;;;1.40;;
59338;SDS011;45117;50.960;5.500;2022-07-19T11:32:19;3.28;;;1.50;;
59338;SDS011;45117;50.960;5.500;2022-07-19T11:34:52;3.63;;;1.20;;
59338;SDS011;45117;50.960;5.500;2022-07-19T11:37:22;4.13;;;1.52;;
59338;SDS011;45117;50.960;5.500;2022-07-19T11:39:50;2.85;;;1.30;;
59338;SDS011;45117;50.960;5.500;2022-07-19T11:42:26;1.98;;;1.23;;
59338;SDS011;45117;50.960;5.500;2022-07-19T11:44:57;4.85;;;1.50;;
59338;SDS011;45117;50.960;5.500;2022-07-19T11:47:24;4.20;;;1.45;;
59338;SDS011;45117;50.960;5.500;2022-07-19T11:49:51;3.70;;;1.65;;
59338;SDS011;45117;50.960;5.500;2022-07-19T11:52:17;3.33;;;1.50;;
59338;SDS011;45117;50.960;5.500;2022-07-19T11:54:58;4.63;;;1.42;;
59338;SDS011;45117;50.960;5.500;2022-07-19T11:57:26;1.55;;;1.23;;
59338;SDS011;45117;50.960;5.500;2022-07-19T11:59:52;3.50;;;1.55;;
59338;SDS011;45117;50.960;5.500;2022-07-19T12:02:19;3.40;;;1.55;;
59338;SDS011;45117;50.960;5.500;2022-07-19T12:04:45;4.05;;;1.65;;
59338;SDS011;45117;50.960;5.500;2022-07-19T12:07:12;3.40;;;1.52;;
59338;SDS011;45117;50.960;5.500;2022-07-19T12:09:42;4.95;;;1.27;;
59338;SDS011;45117;50.960;5.500;2022-07-19T12:12:12;3.38;;;1.50;;
59338;SDS011;45117;50.960;5.500;2022-07-19T12:14:40;4.03;;;1.60;;
59338;SDS011;45117;50.960;5.500;2022-07-19T12:17:11;5.80;;;1.70;;
59338;SDS011;45117;50.960;5.500;2022-07-19T12:19:38;5.53;;;1.55;;
59338;SDS011;45117;50.960;5.500;2022-07-19T12:22:06;3.63;;;1.67;;
59338;SDS011;45117;50.960;5.500;2022-07-19T12:24:51;4.15;;;1.60;;
59338;SDS011;45117;50.960;5.500;2022-07-19T12:27:19;2.60;;;1.50;;
59338;SDS011;45117;50.960;5.500;2022-07-19T12:29:47;2.55;;;1.50;;
59338;SDS011;45117;50.960;5.500;2022-07-19T12:32:15;3.03;;;1.70;;
59338;SDS011;45117;50.960;5.500;2022-07-19T12:34:52;2.63;;;1.20;;
59338;SDS011;45117;50.960;5.500;2022-07-19T12:37:23;3.63;;;1.77;;
59338;SDS011;45117;50.960;5.500;2022-07-19T12:39:57;8.70;;;1.73;;
59338;SDS011;45117;50.960;5.500;2022-07-19T12:42:26;4.13;;;1.70;;
59338;SDS011;45117;50.960;5.500;2022-07-19T12:45:02;3.83;;;1.70;;
59338;SDS011;45117;50.960;5.500;2022-07-19T12:47:29;4.18;;;1.50;;
59338;SDS011;45117;50.960;5.500;2022-07-19T12:49:55;3.10;;;1.58;;
59338;SDS011;45117;50.960;5.500;2022-07-19T12:52:22;4.40;;;1.65;;
59338;SDS011;45117;50.960;5.500;2022-07-19T12:54:48;3.22;;;1.50;;
59338;SDS011;45117;50.960;5.500;2022-07-19T12:57:15;3.45;;;1.73;;
59338;SDS011;45117;50.960;5.500;2022-07-19T12:59:43;5.45;;;1.67;;
59338;SDS011;45117;50.960;5.500;2022-07-19T13:02:10;2.97;;;1.65;;
59338;SDS011;45117;50.960;5.500;2022-07-19T13:04:39;2.90;;;1.80;;
59338;SDS011;45117;50.960;5.500;2022-07-19T13:07:07;4.40;;;1.67;;
59338;SDS011;45117;50.960;5.500;2022-07-19T13:09:34;3.10;;;1.70;;
59338;SDS011;45117;50.960;5.500;2022-07-19T13:12:02;3.42;;;1.60;;
59338;SDS011;45117;50.960;5.500;2022-07-19T13:14:31;2.30;;;1.48;;
59338;SDS011;45117;50.960;5.500;2022-07-19T13:16:59;2.90;;;1.60;;
59338;SDS011;45117;50.960;5.500;2022-07-19T13:19:26;3.42;;;1.40;;
59338;SDS011;45117;50.960;5.500;2022-07-19T13:21:53;2.35;;;1.55;;
59338;SDS011;45117;50.960;5.500;2022-07-19T13:24:19;3.15;;;1.38;;
59338;SDS011;45117;50.960;5.500;2022-07-19T13:26:46;2.55;;;1.30;;
59338;SDS011;45117;50.960;5.500;2022-07-19T13:29:13;4.28;;;1.52;;
59338;SDS011;45117;50.960;5.500;2022-07-19T13:31:39;1.83;;;1.20;;
59338;SDS011;45117;50.960;5.500;2022-07-19T13:34:07;3.80;;;1.63;;
59338;SDS011;45117;50.960;5.500;2022-07-19T13:36:34;5.32;;;1.70;;
59338;SDS011;45117;50.960;5.500;2022-07-19T13:39:00;2.47;;;1.60;;
59338;SDS011;45117;50.960;5.500;2022-07-19T13:41:27;3.78;;;1.67;;
59338;SDS011;45117;50.960;5.500;2022-07-19T13:43:53;5.65;;;1.70;;
59338;SDS011;45117;50.960;5.500;2022-07-19T13:46:20;3.20;;;1.30;;
59338;SDS011;45117;50.960;5.500;2022-07-19T13:48:47;4.80;;;1.50;;
59338;SDS011;45117;50.960;5.500;2022-07-19T13:51:15;4.93;;;1.60;;
59338;SDS011;45117;50.960;5.500;2022-07-19T13:53:41;2.67;;;1.63;;
59338;SDS011;45117;50.960;5.500;2022-07-19T13:56:08;3.70;;;1.52;;
59338;SDS011;45117;50.960;5.500;2022-07-19T13:58:35;4.85;;;1.60;;
59338;SDS011;45117;50.960;5.500;2022-07-19T14:01:01;4.53;;;1.60;;
59338;SDS011;45117;50.960;5.500;2022-07-19T14:03:28;3.80;;;1.50;;
59338;SDS011;45117;50.960;5.500;2022-07-19T14:05:55;4.13;;;1.52;;
59338;SDS011;45117;50.960;5.500;2022-07-19T14:08:23;3.13;;;1.50;;
59338;SDS011;45117;50.960;5.500;2022-07-19T14:10:50;5.47;;;1.80;;
59338;SDS011;45117;50.960;5.500;2022-07-19T14:13:16;3.58;;;1.45;;
59338;SDS011;45117;50.960;5.500;2022-07-19T14:15:43;1.98;;;1.45;;
59338;SDS011;45117;50.960;5.500;2022-07-19T14:18:09;5.45;;;1.60;;
59338;SDS011;45117;50.960;5.500;2022-07-19T14:20:37;4.55;;;1.90;;
59338;SDS011;45117;50.960;5.500;2022-07-19T14:23:05;3.65;;;1.58;;
59338;SDS011;45117;50.960;5.500;2022-07-19T14:25:33;4.18;;;2.00;;
59338;SDS011;45117;50.960;5.500;2022-07-19T14:28:00;2.20;;;1.50;;
59338;SDS011;45117;50.960;5.500;2022-07-19T14:30:26;6.32;;;1.70;;
59338;SDS011;45117;50.960;5.500;2022-07-19T14:32:53;3.03;;;1.60;;
59338;SDS011;45117;50.960;5.500;2022-07-19T14:35:20;5.05;;;1.50;;
59338;SDS011;45117;50.960;5.500;2022-07-19T14:37:46;5.65;;;1.70;;
59338;SDS011;45117;50.960;5.500;2022-07-19T14:40:13;3.42;;;1.45;;
59338;SDS011;45117;50.960;5.500;2022-07-19T14:42:41;3.22;;;1.75;;
59338;SDS011;45117;50.960;5.500;2022-07-19T14:45:08;6.70;;;2.30;;
59338;SDS011;45117;50.960;5.500;2022-07-19T14:47:35;3.30;;;1.52;;
59338;SDS011;45117;50.960;5.500;2022-07-19T14:50:02;2.60;;;1.60;;
59338;SDS011;45117;50.960;5.500;2022-07-19T14:52:31;4.47;;;1.88;;
59338;SDS011;45117;50.960;5.500;2022-07-19T14:54:58;5.40;;;1.90;;
59338;SDS011;45117;50.960;5.500;2022-07-19T14:57:24;3.90;;;2.10;;
59338;SDS011;45117;50.960;5.500;2022-07-19T14:59:53;3.85;;;1.75;;
59338;SDS011;45117;50.960;5.500;2022-07-19T15:02:19;3.53;;;2.03;;